Time;durP1;ratioP1;P1;durP2;ratioP2;P2;SDS_P1;SDS_P2;PMS_P1;PMS_P2;Temp;Humidity;BMP_temperature;BMP_pressure;BME280_temperature;BME280_humidity;BME280_pressure;Samples;Min_cycle;Max_cycle;Signal;HPM_P1;HPM_P2
2021/11/02 00:01:38;;;;;;;1.50;0.88;;;;;;;5.56;52.59;99884.28;5000614;28;20034;-69
2021/11/02 00:04:04;;;;;;;4.97;1.08;;;;;;;5.47;52.89;99887.19;5000183;28;20515;-69
2021/11/02 00:06:30;;;;;;;1.73;0.88;;;;;;;5.49;52.80;99890.59;5000377;28;20032;-69
2021/11/02 00:08:56;;;;;;;6.03;0.90;;;;;;;5.52;52.44;99889.63;5004584;28;20046;-68
2021/11/02 00:11:21;;;;;;;7.05;1.17;;;;;;;5.47;53.20;99887.19;4994773;28;20471;-69
2021/11/02 00:13:49;;;;;;;1.80;1.13;;;;;;;5.50;52.95;99889.66;5001101;28;20044;-69
2021/11/02 00:16:19;;;;;;;3.47;1.30;;;;;;;5.62;52.85;99886.66;5004996;28;20135;-68
2021/11/02 00:18:50;;;;;;;4.72;1.30;;;;;;;5.60;53.02;99880.69;5005741;28;20073;-69
2021/11/02 00:21:16;;;;;;;4.18;1.58;;;;;;;5.61;52.85;99874.63;5006258;28;20434;-68
2021/11/02 00:23:42;;;;;;;1.88;1.30;;;;;;;5.64;52.68;99884.88;4997898;28;20107;-69
2021/11/02 00:26:12;;;;;;;3.85;1.40;;;;;;;5.64;52.69;99877.09;5019801;28;20045;-69
2021/11/02 00:28:39;;;;;;;2.88;1.17;;;;;;;5.55;53.08;99880.00;5018316;28;20483;-68
2021/11/02 00:31:04;;;;;;;8.20;1.65;;;;;;;5.52;53.19;99881.84;5004363;28;20029;-68
2021/11/02 00:33:30;;;;;;;3.05;0.75;;;;;;;5.50;53.17;99875.88;5004462;28;20057;-69
2021/11/02 00:35:59;;;;;;;11.88;1.23;;;;;;;5.55;53.49;99864.47;5006113;28;20415;-69
2021/11/02 00:38:25;;;;;;;5.20;1.55;;;;;;;5.43;53.43;99870.06;5004616;28;20058;-69
2021/11/02 00:40:50;;;;;;;4.65;1.10;;;;;;;5.55;53.27;99868.81;5006169;28;20042;-69
2021/11/02 00:43:16;;;;;;;5.47;1.58;;;;;;;5.55;52.66;99864.47;4987538;28;20056;-69
2021/11/02 00:45:41;;;;;;;5.32;1.55;;;;;;;5.49;52.86;99862.06;5002132;28;20830;-69
2021/11/02 00:48:13;;;;;;;7.72;0.98;;;;;;;5.39;53.09;99863.28;5001106;28;20056;-69
2021/11/02 00:50:44;;;;;;;3.75;1.55;;;;;;;5.45;52.91;99870.84;5006013;28;20025;-69
2021/11/02 00:53:11;;;;;;;3.47;1.27;;;;;;;5.43;53.36;99867.47;5002370;28;20108;-69
2021/11/02 00:55:37;;;;;;;2.53;1.00;;;;;;;5.48;53.24;99856.94;5005353;28;20062;-69
2021/11/02 00:58:05;;;;;;;3.78;0.90;;;;;;;5.40;53.31;99859.81;4971998;28;20084;-68
2021/11/02 01:00:32;;;;;;;3.08;1.15;;;;;;;5.37;53.16;99860.75;4991944;28;20037;-68
2021/11/02 01:02:58;;;;;;;5.30;1.38;;;;;;;5.15;53.84;99859.81;5002827;28;20060;-69
2021/11/02 01:05:23;;;;;;;8.45;2.00;;;;;;;5.37;53.17;99862.47;5003842;28;20547;-68
2021/11/02 01:07:49;;;;;;;2.28;1.20;;;;;;;5.38;53.26;99866.78;4986282;28;20034;-68
2021/11/02 01:10:18;;;;;;;2.45;1.63;;;;;;;5.05;54.36;99869.59;5003235;28;20329;-69
2021/11/02 01:12:49;;;;;;;2.65;1.35;;;;;;;5.15;54.56;99870.16;4993109;28;20054;-69
2021/11/02 01:15:18;;;;;;;6.88;1.77;;;;;;;5.35;53.50;99864.31;5003390;28;20412;-68
2021/11/02 01:17:44;;;;;;;4.00;1.08;;;;;;;5.40;52.98;99870.16;5003505;28;20495;-69
2021/11/02 01:20:12;;;;;;;8.50;1.27;;;;;;;5.36;52.75;99859.06;5004007;28;20131;-68
2021/11/02 01:22:39;;;;;;;6.15;1.55;;;;;;;5.23;53.62;99862.97;5005174;28;20042;-68
2021/11/02 01:25:06;;;;;;;8.07;2.03;;;;;;;5.19;53.55;99867.41;5000754;28;20522;-69
2021/11/02 01:27:32;;;;;;;2.83;0.90;;;;;;;5.31;53.26;99865.31;5003053;28;20046;-68
2021/11/02 01:29:58;;;;;;;7.50;1.00;;;;;;;5.25;53.19;99861.16;4982333;28;20046;-69
2021/11/02 01:32:24;;;;;;;8.93;1.35;;;;;;;5.26;53.22;99852.50;5001012;28;20042;-68
2021/11/02 01:34:52;;;;;;;4.75;0.75;;;;;;;5.27;53.01;99850.75;4996435;28;20041;-69
2021/11/02 01:37:18;;;;;;;5.28;1.60;;;;;;;5.18;53.28;99857.94;5003705;28;20050;-69
2021/11/02 01:39:43;;;;;;;2.13;1.08;;;;;;;5.19;53.37;99841.50;5004501;28;20033;-68
2021/11/02 01:42:10;;;;;;;4.95;1.15;;;;;;;5.25;53.29;99840.44;5002978;28;20049;-68
2021/11/02 01:44:36;;;;;;;8.82;1.38;;;;;;;4.98;53.90;99843.06;4985245;28;20040;-68
2021/11/02 01:47:04;;;;;;;2.70;1.35;;;;;;;4.95;54.95;99837.16;5002323;28;20044;-69
2021/11/02 01:49:35;;;;;;;5.18;1.45;;;;;;;4.73;55.66;99842.16;5018380;28;20072;-69
2021/11/02 01:52:02;;;;;;;4.70;1.65;;;;;;;4.73;55.22;99845.59;4976488;28;20504;-69
2021/11/02 01:54:29;;;;;;;5.68;1.50;;;;;;;4.83;55.05;99839.22;5003963;28;20041;-69
2021/11/02 01:56:55;;;;;;;1.75;0.88;;;;;;;4.76;55.34;99832.53;5014979;28;20026;-69
2021/11/02 01:59:25;;;;;;;2.53;0.93;;;;;;;4.99;54.35;99828.41;5001879;28;20052;-68
2021/11/02 02:02:42;;;;;;;3.72;1.58;;;;;;;4.91;54.79;99839.00;5002415;28;20136;-69
2021/11/02 02:05:46;;;;;;;3.30;1.00;;;;;;;5.17;53.78;99830.34;5001158;28;20372;-68
2021/11/02 02:08:43;;;;;;;2.22;0.95;;;;;;;5.14;53.66;99832.19;4980802;28;20144;-70
2021/11/02 02:11:17;;;;;;;2.97;0.85;;;;;;;5.21;53.90;99833.66;5002645;28;20044;-68
2021/11/02 02:14:09;;;;;;;4.30;0.98;;;;;;;5.17;54.09;99837.28;5001954;28;20046;-69
2021/11/02 02:16:39;;;;;;;3.67;1.23;;;;;;;4.91;55.34;99848.50;5001518;28;20042;-69
2021/11/02 02:19:25;;;;;;;;;;;;;;;5.23;54.44;99847.41;5015867;28;20871;-69
2021/11/02 02:22:29;;;;;;;8.35;1.58;;;;;;;5.24;53.91;99844.78;5002606;28;19917;-69
2021/11/02 02:25:40;;;;;;;2.72;0.98;;;;;;;5.27;53.92;99838.66;5000809;28;20033;-68
2021/11/02 02:28:36;;;;;;;3.25;1.10;;;;;;;4.89;55.46;99852.88;5016060;28;20608;-68
2021/11/02 02:31:08;;;;;;;5.82;1.00;;;;;;;4.93;55.56;99846.72;4995440;28;20761;-68
2021/11/02 02:33:44;;;;;;;3.75;1.38;;;;;;;5.14;54.50;99845.97;5001021;28;20041;-69
2021/11/02 02:36:15;;;;;;;2.08;0.77;;;;;;;5.28;53.62;99842.94;4979237;28;20049;-69
2021/11/02 02:39:15;;;;;;;1.30;1.08;;;;;;;5.24;54.12;99837.00;4996108;28;20132;-68
2021/11/02 02:41:56;;;;;;;2.63;0.88;;;;;;;5.24;53.69;99838.75;4994060;28;20069;-68
2021/11/02 02:44:24;;;;;;;3.75;1.08;;;;;;;5.29;53.46;99833.41;5000891;28;20577;-69
2021/11/02 02:46:50;;;;;;;2.88;0.95;;;;;;;5.28;53.37;99840.34;5000216;28;20034;-69
2021/11/02 02:49:17;;;;;;;4.60;1.00;;;;;;;4.84;55.33;99832.28;5002853;28;20152;-68
2021/11/02 02:51:44;;;;;;;4.72;0.47;;;;;;;5.16;54.31;99836.41;5018001;28;20926;-69
2021/11/02 02:54:14;;;;;;;1.95;0.75;;;;;;;5.17;53.88;99830.34;5001676;28;20423;-69
2021/11/02 02:56:43;;;;;;;2.92;0.60;;;;;;;5.18;53.46;99829.44;5015734;28;20080;-68
2021/11/02 02:59:10;;;;;;;5.47;1.33;;;;;;;5.16;54.40;99835.59;4987407;28;20050;-68
2021/11/02 03:01:37;;;;;;;8.05;0.93;;;;;;;5.18;53.77;99824.25;4984436;28;20119;-69
2021/11/02 03:04:06;;;;;;;3.55;1.60;;;;;;;5.14;53.43;99833.03;4992492;28;20746;-68
2021/11/02 03:06:36;;;;;;;3.53;0.98;;;;;;;5.06;53.88;99840.25;5013610;28;20050;-69
2021/11/02 03:09:06;;;;;;;1.50;0.90;;;;;;;5.00;53.92;99840.44;4989907;28;20084;-69
2021/11/02 03:11:34;;;;;;;2.25;0.80;;;;;;;5.02;53.71;99838.63;5001120;28;20153;-67
2021/11/02 03:14:10;;;;;;;1.27;0.70;;;;;;;4.96;53.85;99838.84;5001557;28;20045;-69
2021/11/02 03:55:45;;;;;;;3.80;1.23;;;;;;;4.41;54.02;99836.25;5017369;28;20084;-70
2021/11/02 03:59:06;;;;;;;3.35;1.10;;;;;;;4.35;54.42;99837.28;5015548;28;20053;-68
2021/11/02 04:01:22;;;;;;;6.32;1.15;;;;;;;4.32;54.35;99826.16;4993712;28;20046;-68
2021/11/02 04:23:48;;;;;;;4.70;1.65;;;;;;;4.13;54.19;99825.91;5014664;28;20092;-69
2021/11/02 04:32:05;;;;;;;5.63;2.08;;;;;;;4.13;55.26;99833.66;4976701;28;20046;-64
2021/11/02 05:20:23;;;;;;;6.93;2.90;;;;;;;4.01;55.41;99848.63;4955506;28;20035;-63
2021/11/02 05:49:36;;;;;;;4.78;2.85;;;;;;;3.79;54.60;99847.56;4993961;28;20097;-65
2021/11/02 06:00:17;;;;;;;;;;;;;;;3.63;55.62;99857.47;4997367;28;20122;-65
2021/11/02 06:30:09;;;;;;;10.15;4.53;;;;;;;3.66;55.82;99878.06;4985904;28;20049;-66
2021/11/02 06:32:38;;;;;;;10.30;4.72;;;;;;;3.67;55.36;99876.31;4987183;28;20042;-65
2021/11/02 06:35:18;;;;;;;8.93;4.00;;;;;;;3.63;55.46;99872.13;4986311;28;20039;-66
2021/11/02 06:38:29;;;;;;;8.13;5.30;;;;;;;3.62;55.47;99875.59;4986367;28;20121;-64
2021/11/02 06:43:55;;;;;;;6.57;4.57;;;;;;;3.60;56.20;99875.63;4984642;28;20046;-65
2021/11/02 06:49:26;;;;;;;11.40;4.57;;;;;;;3.80;55.94;99875.94;4986057;28;20058;-66
2021/11/02 07:17:18;;;;;;;11.25;5.03;;;;;;;4.40;55.57;99910.41;5001772;28;20046;-65
2021/11/02 07:25:11;;;;;;;14.00;5.22;;;;;;;4.71;55.54;99901.72;5002431;28;20018;-65
2021/11/02 08:48:16;;;;;;;7.32;4.40;;;;;;;9.36;44.85;99918.53;4981570;28;20042;-66
2021/11/02 08:50:44;;;;;;;9.00;4.22;;;;;;;9.04;43.95;99919.28;4981355;28;20337;-64
2021/11/02 08:53:11;;;;;;;7.95;4.50;;;;;;;10.05;43.29;99919.38;4982118;28;20527;-64
2021/11/02 08:55:38;;;;;;;6.65;4.00;;;;;;;10.27;41.71;99918.25;4980531;28;20445;-64
2021/11/02 08:58:04;;;;;;;10.38;4.50;;;;;;;10.47;41.40;99920.63;4977532;28;20073;-64
2021/11/02 09:00:30;;;;;;;8.85;4.18;;;;;;;10.73;41.36;99915.72;4979408;28;20424;-64
2021/11/02 09:03:04;;;;;;;9.63;4.22;;;;;;;10.57;40.94;99915.72;4979045;28;20031;-63
2021/11/02 09:05:34;;;;;;;7.45;4.43;;;;;;;10.41;41.48;99916.59;4979903;28;20042;-64
2021/11/02 09:08:01;;;;;;;6.22;4.65;;;;;;;10.04;42.22;99920.31;4976056;28;20042;-65
2021/11/02 09:10:27;;;;;;;9.07;3.53;;;;;;;9.72;42.70;99917.59;4974850;28;20085;-64
2021/11/02 09:12:57;;;;;;;5.65;3.90;;;;;;;8.93;43.91;99914.59;4976602;28;20113;-65
2021/11/02 09:15:25;;;;;;;8.05;4.95;;;;;;;8.96;45.04;99923.13;4989310;28;20100;-65
2021/11/02 09:17:53;;;;;;;7.38;4.45;;;;;;;8.44;46.28;99925.53;4976313;28;20122;-64
2021/11/02 09:20:20;;;;;;;9.65;4.50;;;;;;;8.86;45.74;99915.81;4976508;28;20097;-65
2021/11/02 09:22:46;;;;;;;10.23;4.38;;;;;;;8.94;45.29;99919.75;4978757;28;20065;-65
2021/11/02 09:25:12;;;;;;;8.18;4.40;;;;;;;8.52;45.73;99923.44;4987971;28;20771;-65
2021/11/02 09:27:39;;;;;;;7.75;4.93;;;;;;;9.02;46.09;99923.72;4980610;28;20050;-65
2021/11/02 09:30:09;;;;;;;9.13;4.85;;;;;;;8.81;45.47;99923.84;4989243;28;20057;-65
2021/11/02 09:32:36;;;;;;;9.55;4.20;;;;;;;9.13;45.00;99916.22;4977657;28;20515;-66
2021/11/02 09:35:03;;;;;;;7.32;5.00;;;;;;;9.44;45.19;99922.53;4981066;28;20489;-66
2021/11/02 09:37:37;;;;;;;9.95;5.45;;;;;;;9.91;43.86;99911.44;4976597;28;20557;-66
2021/11/02 09:40:53;;;;;;;8.55;4.45;;;;;;;10.15;43.97;99917.97;4978645;28;20143;-64
2021/11/02 09:43:45;;;;;;;8.18;4.80;;;;;;;10.49;42.77;99907.47;4989478;28;20137;-65
2021/11/02 09:46:36;;;;;;;7.05;5.05;;;;;;;10.37;42.28;99909.84;4976960;28;20038;-65
2021/11/02 09:49:28;;;;;;;9.80;4.82;;;;;;;10.31;43.62;99906.72;4975723;28;20070;-65
2021/11/02 09:52:17;;;;;;;13.38;5.55;;;;;;;10.32;42.40;99901.38;4978557;28;20022;-64
2021/11/02 09:55:23;;;;;;;8.98;4.63;;;;;;;10.91;42.29;99913.88;4975865;28;20132;-65
2021/11/02 09:58:17;;;;;;;9.13;5.30;;;;;;;11.62;41.18;99905.38;4976243;28;20050;-65
2021/11/02 10:00:53;;;;;;;7.57;4.55;;;;;;;12.13;40.21;99911.00;4989704;28;20031;-65
2021/11/02 10:03:52;;;;;;;9.48;5.43;;;;;;;13.03;38.34;99899.22;4959933;28;20619;-65
2021/11/02 10:06:36;;;;;;;11.95;5.53;;;;;;;13.51;37.48;99901.28;4991805;28;20038;-65
2021/11/02 10:09:11;;;;;;;9.75;4.88;;;;;;;13.23;36.06;99897.88;4992967;28;20050;-66
2021/11/02 10:11:58;;;;;;;6.78;4.40;;;;;;;12.40;37.67;99903.25;4976607;28;20065;-65
2021/11/02 10:14:40;;;;;;;7.00;5.03;;;;;;;11.87;39.97;99900.38;4992625;28;20057;-67
2021/11/02 10:17:45;;;;;;;7.18;4.13;;;;;;;12.37;38.59;99897.34;4978142;28;20038;-66
2021/11/02 10:20:38;;;;;;;8.65;3.63;;;;;;;12.42;39.28;99897.88;4993800;28;20206;-66
2021/11/02 10:23:40;;;;;;;10.77;4.53;;;;;;;12.76;38.44;99891.38;4975716;28;20042;-66
2021/11/02 10:26:14;;;;;;;7.05;4.22;;;;;;;13.07;38.53;99899.81;4979624;28;20057;-65
2021/11/02 10:28:58;;;;;;;5.82;4.60;;;;;;;13.50;37.56;99899.59;4974922;28;20574;-66
2021/11/02 10:31:33;;;;;;;8.80;4.68;;;;;;;13.44;37.61;99895.59;4993889;28;20035;-65
2021/11/02 10:34:10;;;;;;;6.85;4.15;;;;;;;13.25;36.72;99896.00;4978564;28;20591;-66
2021/11/02 10:36:52;;;;;;;6.80;3.92;;;;;;;12.89;37.45;99888.75;4977175;28;20404;-65
2021/11/02 10:39:19;;;;;;;;;;;;;;;12.39;38.20;99891.06;4976317;28;20052;-66
2021/11/02 10:41:54;;;;;;;6.65;3.90;;;;;;;12.79;38.61;99885.06;4976618;28;19960;-67
2021/11/02 10:44:28;;;;;;;10.15;3.97;;;;;;;13.11;38.00;99889.03;4971883;28;20500;-66
2021/11/02 10:47:13;;;;;;;8.65;3.28;;;;;;;12.40;39.17;99887.50;4987222;28;20041;-66
2021/11/02 10:50:04;;;;;;;6.07;4.18;;;;;;;13.06;38.18;99880.63;4974228;28;20491;-66
2021/11/02 10:52:36;;;;;;;9.23;4.03;;;;;;;12.84;38.75;99883.00;4968913;28;20193;-65
2021/11/02 10:55:04;;;;;;;;;;;;;;;12.84;38.43;99880.38;4980621;28;20045;-66
2021/11/02 10:57:56;;;;;;;5.22;3.70;;;;;;;12.36;39.70;99890.44;4975568;28;19918;-66
2021/11/02 11:00:23;;;;;;;6.40;4.03;;;;;;;11.84;41.40;99890.09;4978256;28;20038;-65
2021/11/02 11:02:53;;;;;;;5.07;4.18;;;;;;;12.29;39.08;99893.44;4976716;28;20034;-66
2021/11/02 11:05:19;;;;;;;8.98;4.40;;;;;;;12.98;39.15;99893.44;4976315;28;20029;-66
2021/11/02 11:07:45;;;;;;;9.00;4.55;;;;;;;13.10;39.23;99889.16;4989384;28;20597;-66
2021/11/02 11:10:13;;;;;;;6.65;3.92;;;;;;;13.62;36.84;99888.28;4974041;28;20367;-66
2021/11/02 11:12:46;;;;;;;6.80;4.63;;;;;;;12.62;38.12;99893.97;4973960;28;20169;-66
2021/11/02 11:15:12;;;;;;;9.80;5.05;;;;;;;12.44;38.35;99898.63;4977050;28;20064;-66
2021/11/02 11:17:45;;;;;;;6.82;5.75;;;;;;;12.06;39.72;99896.63;4976763;28;20149;-66
2021/11/02 11:20:14;;;;;;;5.50;4.70;;;;;;;11.73;40.85;99902.97;4989035;28;20034;-66
2021/11/02 11:22:43;;;;;;;7.68;4.75;;;;;;;11.02;41.70;99895.81;4976288;28;20034;-67
2021/11/02 11:25:23;;;;;;;9.90;5.55;;;;;;;11.40;42.13;99901.44;4976110;28;20089;-66
2021/11/02 11:27:51;;;;;;;8.57;5.10;;;;;;;12.20;40.74;99894.00;4975953;28;20048;-66
2021/11/02 11:30:19;;;;;;;10.73;5.13;;;;;;;11.71;41.17;99899.59;4988354;28;20128;-67
2021/11/02 11:32:46;;;;;;;6.45;4.63;;;;;;;11.14;42.36;99902.09;4991622;28;20125;-66
2021/11/02 11:35:13;;;;;;;5.45;4.40;;;;;;;10.78;43.38;99903.25;4975302;28;20421;-66
2021/11/02 11:37:44;;;;;;;7.50;5.32;;;;;;;10.18;44.04;99902.13;4970612;28;20035;-66
2021/11/02 11:40:12;;;;;;;8.63;5.60;;;;;;;10.81;43.18;99903.06;4974892;28;20151;-66
2021/11/02 11:42:39;;;;;;;7.13;4.72;;;;;;;11.21;42.19;99891.19;4972983;28;20809;-66
2021/11/02 11:45:24;;;;;;;10.40;5.10;;;;;;;11.63;41.25;99897.44;4976402;28;20059;-66
2021/11/02 11:48:07;;;;;;;6.22;3.90;;;;;;;10.43;43.82;99898.19;4970902;28;20038;-66
2021/11/02 11:50:38;;;;;;;8.80;4.97;;;;;;;9.68;45.51;99897.81;4969762;28;20039;-66
2021/11/02 11:53:05;;;;;;;11.50;5.77;;;;;;;9.51;46.33;99905.66;4974315;28;20034;-66
2021/11/02 11:55:40;;;;;;;8.68;5.32;;;;;;;10.38;44.41;99895.00;4976069;28;20049;-66
2021/11/02 11:58:19;;;;;;;7.90;5.65;;;;;;;10.28;44.21;99904.25;4974866;28;20084;-67
2021/11/02 12:00:47;;;;;;;7.00;5.45;;;;;;;10.63;44.03;99897.94;4978307;28;20038;-65
2021/11/02 12:03:38;;;;;;;9.20;5.63;;;;;;;10.60;43.57;99898.09;4976418;28;20066;-66
2021/11/02 12:06:20;;;;;;;10.18;4.75;;;;;;;10.14;44.80;99897.16;4973626;28;20406;-66
2021/11/02 12:08:57;;;;;;;7.93;5.00;;;;;;;9.31;46.81;99904.88;4974020;28;20046;-67
2021/11/02 12:11:29;;;;;;;6.00;5.25;;;;;;;9.77;45.60;99901.72;4982334;28;20172;-67
2021/11/02 12:14:17;;;;;;;12.02;5.90;;;;;;;9.63;46.59;99902.41;4986146;28;20042;-66
2021/11/02 12:16:44;;;;;;;7.78;5.40;;;;;;;9.74;46.43;99905.28;4984445;28;20171;-67
2021/11/02 12:19:39;;;;;;;9.48;5.40;;;;;;;9.29;47.09;99903.28;4997458;28;20049;-66
2021/11/02 12:22:09;;;;;;;9.48;5.82;;;;;;;9.40;46.72;99901.81;4977257;28;20034;-67
2021/11/02 12:24:42;;;;;;;8.57;5.72;;;;;;;9.68;45.60;99903.03;4981894;28;20023;-66
2021/11/02 12:27:19;;;;;;;6.13;5.25;;;;;;;10.28;44.88;99901.63;4977969;28;20656;-66
2021/11/02 12:29:47;;;;;;;5.72;5.15;;;;;;;9.95;45.67;99894.72;4982738;28;20045;-67
2021/11/02 12:32:17;;;;;;;5.85;4.80;;;;;;;10.59;44.67;99901.66;4983821;28;20141;-67
2021/11/02 12:34:50;;;;;;;6.45;4.50;;;;;;;11.12;43.00;99899.56;4982019;28;20034;-68
2021/11/02 12:37:18;;;;;;;6.00;4.70;;;;;;;11.56;42.44;99890.88;4996288;28;20042;-65
2021/11/02 12:39:44;;;;;;;11.88;5.40;;;;;;;11.91;40.95;99897.56;4980159;28;20034;-68
2021/11/02 12:42:11;;;;;;;8.15;4.65;;;;;;;12.74;40.00;99884.53;4975487;28;20046;-65
2021/11/02 12:44:38;;;;;;;7.03;4.43;;;;;;;12.99;38.78;99884.59;4978788;28;20169;-67
2021/11/02 12:47:10;;;;;;;5.05;3.78;;;;;;;13.03;39.05;99882.63;4981546;28;20042;-66
2021/11/02 12:49:46;;;;;;;4.38;2.97;;;;;;;13.29;38.26;99891.38;4981389;28;20301;-66
2021/11/02 12:52:13;;;;;;;7.97;5.05;;;;;;;13.92;37.37;99889.75;4979110;28;20231;-65
2021/11/02 12:54:56;;;;;;;7.78;5.28;;;;;;;13.96;36.98;99891.19;4982665;28;20026;-66
2021/11/02 12:57:32;;;;;;;6.55;3.80;;;;;;;14.18;35.87;99889.69;4979262;28;20039;-66
2021/11/02 12:59:59;;;;;;;6.25;3.63;;;;;;;13.08;37.61;99878.75;4994193;28;20181;-65
2021/11/02 13:02:34;;;;;;;8.20;4.38;;;;;;;13.06;38.44;99885.88;4982012;28;20503;-68
2021/11/02 13:05:25;;;;;;;6.32;3.63;;;;;;;13.06;38.12;99883.25;4980935;28;20031;-66
2021/11/02 13:08:03;;;;;;;9.37;3.07;;;;;;;13.40;37.78;99883.63;4979777;28;20038;-66
2021/11/02 13:10:31;;;;;;;8.20;3.13;;;;;;;13.38;37.68;99890.75;4995407;28;20058;-66
2021/11/02 13:13:04;;;;;;;4.30;3.08;;;;;;;13.29;37.47;99891.38;4974988;28;20267;-66
2021/11/02 13:15:31;;;;;;;3.53;3.00;;;;;;;13.47;37.40;99895.41;4981601;28;20050;-66
2021/11/02 13:18:00;;;;;;;5.40;2.97;;;;;;;13.63;37.76;99889.13;4981127;28;20042;-66
2021/11/02 13:20:31;;;;;;;5.28;3.22;;;;;;;12.71;38.52;99885.56;4990077;28;20038;-67
2021/11/02 13:22:57;;;;;;;3.80;2.60;;;;;;;12.97;38.25;99893.53;4983489;28;20101;-66
2021/11/02 13:25:43;;;;;;;6.38;3.30;;;;;;;12.50;39.10;99887.75;4986729;28;20050;-67
2021/11/02 13:28:09;;;;;;;4.68;3.05;;;;;;;12.57;38.58;99881.19;4987102;28;20102;-65
2021/11/02 13:30:40;;;;;;;5.45;2.88;;;;;;;13.09;38.88;99887.44;4984514;28;20125;-66
2021/11/02 13:33:06;;;;;;;;;;;;;;;12.98;38.08;99888.19;4985993;28;20046;-66
2021/11/02 13:35:41;;;;;;;5.28;2.47;;;;;;;13.06;38.25;99880.63;4985133;28;19913;-66
2021/11/02 13:38:27;;;;;;;3.05;2.08;;;;;;;13.51;36.97;99888.16;4988464;28;20113;-67
2021/11/02 13:40:54;;;;;;;4.15;2.78;;;;;;;13.00;38.51;99885.44;4986760;28;20038;-66
2021/11/02 13:43:32;;;;;;;9.40;3.22;;;;;;;12.46;38.80;99891.50;4982032;28;20337;-66
2021/11/02 13:45:58;;;;;;;6.07;2.85;;;;;;;12.33;39.64;99891.44;4980387;28;20047;-66
2021/11/02 13:48:26;;;;;;;5.93;2.45;;;;;;;12.25;39.31;99897.16;4984632;28;20353;-66
2021/11/02 13:50:52;;;;;;;2.65;1.83;;;;;;;12.07;39.46;99900.94;4982634;28;20054;-66
2021/11/02 13:53:17;;;;;;;2.47;2.17;;;;;;;12.10;39.88;99895.50;4980329;28;20069;-65
2021/11/02 13:55:43;;;;;;;5.65;2.53;;;;;;;11.92;40.98;99894.03;4978541;28;20072;-66
2021/11/02 13:58:08;;;;;;;4.28;2.58;;;;;;;11.91;40.87;99903.66;4981653;28;20046;-66
2021/11/02 14:00:35;;;;;;;3.78;2.80;;;;;;;11.78;40.46;99894.88;4980288;28;20448;-71
2021/11/02 14:03:06;;;;;;;4.95;2.80;;;;;;;11.63;41.17;99900.03;4996453;28;20066;-66
2021/11/02 14:05:32;;;;;;;3.17;2.83;;;;;;;11.36;41.72;99892.06;4979821;28;20061;-66
2021/11/02 14:07:57;;;;;;;10.35;2.72;;;;;;;11.22;42.54;99897.28;4979127;28;20039;-66
2021/11/02 14:10:29;;;;;;;4.90;3.00;;;;;;;11.03;42.89;99893.09;4981426;28;20049;-67
2021/11/02 14:12:55;;;;;;;6.03;2.17;;;;;;;10.85;43.04;99896.75;4994586;28;20035;-65
2021/11/02 14:15:31;;;;;;;3.67;2.20;;;;;;;10.73;43.78;99890.44;4980288;28;20023;-66
2021/11/02 14:17:56;;;;;;;3.72;2.78;;;;;;;10.80;43.73;99897.00;4978710;28;20046;-65
2021/11/02 14:20:49;;;;;;;4.10;2.42;;;;;;;10.78;44.39;99893.63;4991303;28;20129;-66
2021/11/02 14:23:39;;;;;;;6.10;1.95;;;;;;;10.90;43.92;99897.34;4992332;28;20374;-66
2021/11/02 14:26:58;;;;;;;7.95;2.72;;;;;;;10.89;43.55;99900.88;4978953;28;20211;-65
2021/11/02 14:29:18;;;;;;;2.85;2.00;;;;;;;10.97;44.04;99898.69;4975929;28;20066;-66
2021/11/02 14:31:47;;;;;;;5.15;2.65;;;;;;;10.93;43.88;99907.63;4979105;28;20125;-68
2021/11/02 14:34:27;;;;;;;4.32;1.98;;;;;;;11.07;43.71;99900.78;4977387;28;20042;-67
2021/11/02 14:37:16;;;;;;;4.78;2.95;;;;;;;11.09;43.75;99901.53;4978060;28;20041;-65
2021/11/02 14:39:56;;;;;;;3.85;2.72;;;;;;;10.84;43.83;99897.72;4982940;28;20575;-66
2021/11/02 14:42:49;;;;;;;5.70;3.28;;;;;;;11.33;43.63;99899.25;4976686;28;20560;-66
2021/11/02 14:45:18;;;;;;;;;;;;;;;11.40;42.77;99904.03;4977155;28;20034;-66
2021/11/02 14:47:45;;;;;;;4.13;3.00;;;;;;;11.42;42.79;99904.78;4976304;28;20012;-65
2021/11/02 14:50:29;;;;;;;6.13;2.80;;;;;;;11.46;42.80;99901.06;4980934;28;20057;-66
2021/11/02 14:53:11;;;;;;;5.85;2.65;;;;;;;11.53;42.46;99905.91;4977991;28;20042;-66
2021/11/02 14:55:57;;;;;;;7.05;3.50;;;;;;;11.00;43.91;99908.97;4977578;28;20031;-66
2021/11/02 14:58:44;;;;;;;4.95;2.42;;;;;;;10.88;43.49;99908.81;4979055;28;20120;-66
2021/11/02 15:01:11;;;;;;;4.45;2.50;;;;;;;10.89;43.69;99911.34;4988800;28;20343;-66
2021/11/02 15:03:38;;;;;;;3.45;2.03;;;;;;;10.80;43.21;99911.84;4975827;28;20051;-66
2021/11/02 15:06:10;;;;;;;4.20;2.10;;;;;;;10.92;43.40;99910.31;4972200;28;20094;-71
2021/11/02 15:08:38;;;;;;;3.15;1.90;;;;;;;10.98;42.80;99915.22;4977096;28;20520;-66
2021/11/02 15:11:11;;;;;;;3.47;1.90;;;;;;;10.81;43.31;99914.38;4978351;28;20046;-66
2021/11/02 15:13:39;;;;;;;2.58;1.75;;;;;;;10.96;43.22;99912.69;4976111;28;20046;-66
2021/11/02 15:16:06;;;;;;;4.03;2.20;;;;;;;11.08;42.89;99915.53;4975455;28;20500;-66
2021/11/02 15:18:45;;;;;;;3.22;1.98;;;;;;;11.05;42.95;99912.16;4973820;28;20039;-66
2021/11/02 15:21:17;;;;;;;5.10;1.80;;;;;;;10.82;42.88;99910.84;4974903;28;20045;-66
2021/11/02 15:23:44;;;;;;;;;;;;;;;10.55;43.67;99907.16;4975654;28;20038;-66
2021/11/02 15:26:12;;;;;;;6.55;1.80;;;;;;;10.37;43.89;99915.06;4973656;28;20090;-66
2021/11/02 15:28:44;;;;;;;5.63;2.33;;;;;;;10.12;44.83;99909.44;4973797;28;20053;-66
2021/11/02 15:31:10;;;;;;;4.07;1.92;;;;;;;9.95;45.19;99915.59;4992652;28;20180;-66
2021/11/02 15:33:39;;;;;;;4.95;1.88;;;;;;;9.80;45.42;99915.44;4974172;28;20042;-66
2021/11/02 15:36:20;;;;;;;4.38;2.45;;;;;;;9.69;46.22;99916.91;4979285;28;20115;-66
2021/11/02 15:39:02;;;;;;;4.30;2.17;;;;;;;9.55;46.36;99923.66;4973415;28;20134;-66
2021/11/02 15:41:28;;;;;;;4.13;2.25;;;;;;;9.42;46.72;99920.00;4974542;28;20041;-65
2021/11/02 15:44:05;;;;;;;5.60;2.65;;;;;;;9.30;47.21;99920.63;4969388;28;20042;-65
2021/11/02 15:46:36;;;;;;;4.10;2.33;;;;;;;9.17;47.54;99917.78;4988634;28;20038;-67
2021/11/02 15:49:11;;;;;;;10.77;2.00;;;;;;;9.10;47.61;99929.44;4974218;28;20050;-66
2021/11/02 15:51:38;;;;;;;5.53;2.47;;;;;;;8.98;48.09;99918.69;4975256;28;20034;-65
2021/11/02 15:54:15;;;;;;;3.15;2.60;;;;;;;8.93;48.57;99923.25;4974867;28;20419;-65
2021/11/02 15:56:41;;;;;;;4.97;2.88;;;;;;;8.89;48.71;99924.31;4986175;28;20153;-65
2021/11/02 15:59:10;;;;;;;3.13;2.75;;;;;;;8.91;48.89;99929.47;4972590;28;20035;-66
2021/11/02 16:01:43;;;;;;;3.40;2.25;;;;;;;8.93;49.12;99923.25;4985447;28;20043;-66
2021/11/02 16:04:13;;;;;;;4.05;2.22;;;;;;;8.98;49.11;99931.72;4988596;28;20680;-67
2021/11/02 16:07:05;;;;;;;4.50;2.13;;;;;;;9.04;48.81;99922.72;4973636;28;20038;-66
2021/11/02 16:09:52;;;;;;;8.68;5.53;;;;;;;9.30;48.38;99924.06;4974372;28;20046;-66
2021/11/02 16:12:37;;;;;;;9.23;5.10;;;;;;;9.19;48.34;99940.25;4973988;28;20119;-65
2021/11/02 16:15:05;;;;;;;7.20;3.47;;;;;;;9.12;48.43;99933.66;4975245;28;20030;-66
2021/11/02 16:18:02;;;;;;;3.60;2.47;;;;;;;9.02;48.53;99931.56;4974102;28;20047;-65
2021/11/02 16:20:34;;;;;;;6.18;4.25;;;;;;;9.02;48.40;99928.94;4969500;28;20046;-66
2021/11/02 16:23:05;;;;;;;8.32;4.28;;;;;;;8.93;48.44;99928.47;4974779;28;20389;-66
2021/11/02 16:25:34;;;;;;;3.67;2.33;;;;;;;8.73;48.82;99936.41;4975536;28;20046;-66
2021/11/02 16:28:12;;;;;;;4.15;2.60;;;;;;;8.62;49.15;99938.63;4986066;28;20039;-66
2021/11/02 16:30:40;;;;;;;3.53;2.90;;;;;;;8.51;48.56;99926.94;4982874;28;20472;-66
2021/11/02 16:33:06;;;;;;;3.88;2.75;;;;;;;8.33;48.87;99930.41;4974033;28;20031;-66
2021/11/02 16:35:36;;;;;;;3.95;2.78;;;;;;;8.10;49.51;99931.44;4972782;28;20465;-65
2021/11/02 16:38:28;;;;;;;6.40;2.80;;;;;;;7.97;49.55;99931.13;4973843;28;20085;-66
2021/11/02 16:40:55;;;;;;;3.67;2.58;;;;;;;7.81;49.80;99935.31;4977553;28;20037;-65
2021/11/02 16:43:47;;;;;;;4.13;2.40;;;;;;;7.64;51.10;99939.47;4969791;28;20101;-65
2021/11/02 16:46:41;;;;;;;8.00;3.13;;;;;;;7.55;51.06;99928.63;4989808;28;20045;-66
2021/11/02 16:49:11;;;;;;;6.72;2.35;;;;;;;7.49;51.70;99929.72;4972561;28;20072;-65
2021/11/02 16:51:46;;;;;;;5.72;2.38;;;;;;;7.45;51.49;99933.34;4984422;28;20039;-65
2021/11/02 16:54:13;;;;;;;3.47;2.67;;;;;;;7.42;51.48;99930.88;4972347;28;20050;-65
2021/11/02 16:57:04;;;;;;;7.30;2.75;;;;;;;7.44;51.59;99929.88;4977979;28;20060;-64
2021/11/02 16:59:39;;;;;;;2.47;2.25;;;;;;;7.67;50.68;99938.53;4976442;28;20113;-66
2021/11/02 17:02:20;;;;;;;6.85;2.55;;;;;;;7.71;50.78;99935.72;4975832;28;20797;-65